This is the latest recevied weather packets stored in our database for station/object CE4ERM-13. If no packets are shown the sender has not sent any weather packets the latest 10 day(s).
| Time | Temp. | Humidity | Pressure | Rain* | Wind** | Luminosity | Snow |
|---|---|---|---|---|---|---|---|
| 1777343057 | 21.11° C | 38% | 1021.3 hPa | - | - | - | - |
| 1777342959 | 22.22° C | 31% | 1022.8 hPa | - | - | - | - |
| 1777342458 | 21.11° C | 38% | 1022 hPa | - | - | - | - |
| 1777342358 | 22.78° C | 31% | 1019.8 hPa | - | - | - | - |
| 1777341758 | 23.33° C | 31% | 1019.6 hPa | - | - | - | - |
| 1777341256 | 21.11° C | 38% | 1021.1 hPa | - | - | - | - |
| 1777341157 | 23.33° C | 31% | 1018.5 hPa | - | - | - | - |
| 1777340656 | 21.11° C | 38% | 1021.3 hPa | - | - | - | - |
| 1777340557 | 22.78° C | 32% | 1019.5 hPa | - | - | - | - |
| 1777340056 | 21.11° C | 38% | 1019.9 hPa | - | - | - | - |
| 1777339956 | 23.89° C | 31% | 1020.6 hPa | - | - | - | - |
| 1777339456 | 21.11° C | 39% | 1021.4 hPa | - | - | - | - |
| 1777339356 | 23.89° C | 30% | 1020.2 hPa | - | - | - | - |
| 1777338856 | 21.67° C | 38% | 1021.5 hPa | - | - | - | - |
| 1777338755 | 20.56° C | 36% | 1020.5 hPa | - | - | - | - |
| 1777337655 | 21.67° C | 37% | 1022.6 hPa | - | - | - | - |
| 1777337554 | 21.67° C | 34% | 1019.8 hPa | - | - | - | - |
| 1777337055 | 21.67° C | 38% | 1021.5 hPa | - | - | - | - |
| 1777336954 | 22.22° C | 33% | 1020.4 hPa | - | - | - | - |
| 1777336354 | 21.67° C | 35% | 1020.2 hPa | - | - | - | - |
| 1777335754 | 21.11° C | 36% | 1020.3 hPa | - | - | - | - |
| 1777335468 | 22.22° C | 39% | 1020.1 hPa | - | - | - | - |
| 1777335154 | 22.22° C | 34% | 1020.1 hPa | - | - | - | - |
| 1777334868 | 22.22° C | 38% | 1019.7 hPa | - | - | - | - |
| 1777334267 | 22.22° C | 37% | 1020.7 hPa | - | - | - | - |
* Rain since midnight (hover to see other rain measurements)
** Current wind speed in m/s (hover to see current wind gust speed)